sensor_id;sensor_type;location;lat;lon;timestamp;P1;durP1;ratioP1;P2;durP2;ratioP2
34767;SDS011;21755;43.608;1.236;2023-02-21T00:01:33;12.48;;;5.82;;
34767;SDS011;21755;43.608;1.236;2023-02-21T00:04:17;14.68;;;6.88;;
34767;SDS011;21755;43.608;1.236;2023-02-21T00:07:02;16.17;;;7.50;;
34767;SDS011;21755;43.608;1.236;2023-02-21T00:09:47;15.02;;;8.25;;
34767;SDS011;21755;43.608;1.236;2023-02-21T00:12:31;17.98;;;7.68;;
34767;SDS011;21755;43.608;1.236;2023-02-21T00:15:15;12.90;;;7.63;;
34767;SDS011;21755;43.608;1.236;2023-02-21T00:18:00;10.75;;;6.70;;
34767;SDS011;21755;43.608;1.236;2023-02-21T00:20:44;15.05;;;8.07;;
34767;SDS011;21755;43.608;1.236;2023-02-21T00:23:32;15.00;;;7.55;;
34767;SDS011;21755;43.608;1.236;2023-02-21T00:26:18;15.52;;;7.53;;
34767;SDS011;21755;43.608;1.236;2023-02-21T00:29:03;22.65;;;8.88;;
34767;SDS011;21755;43.608;1.236;2023-02-21T00:31:47;14.73;;;8.20;;
34767;SDS011;21755;43.608;1.236;2023-02-21T00:34:31;15.10;;;8.57;;
34767;SDS011;21755;43.608;1.236;2023-02-21T00:37:15;13.18;;;7.63;;
34767;SDS011;21755;43.608;1.236;2023-02-21T00:39:59;15.13;;;7.78;;
34767;SDS011;21755;43.608;1.236;2023-02-21T00:42:44;15.05;;;7.85;;
34767;SDS011;21755;43.608;1.236;2023-02-21T00:45:28;15.00;;;7.95;;
34767;SDS011;21755;43.608;1.236;2023-02-21T00:48:12;12.65;;;7.43;;
34767;SDS011;21755;43.608;1.236;2023-02-21T00:51:03;20.10;;;8.93;;
34767;SDS011;21755;43.608;1.236;2023-02-21T00:53:48;21.02;;;8.32;;
34767;SDS011;21755;43.608;1.236;2023-02-21T00:56:32;18.92;;;8.10;;
34767;SDS011;21755;43.608;1.236;2023-02-21T00:59:16;14.50;;;8.68;;
34767;SDS011;21755;43.608;1.236;2023-02-21T01:02:00;13.55;;;7.85;;
34767;SDS011;21755;43.608;1.236;2023-02-21T01:04:44;18.67;;;8.07;;
34767;SDS011;21755;43.608;1.236;2023-02-21T01:07:28;10.77;;;6.70;;
34767;SDS011;21755;43.608;1.236;2023-02-21T01:10:12;17.95;;;7.60;;
34767;SDS011;21755;43.608;1.236;2023-02-21T01:12:57;13.45;;;7.22;;
34767;SDS011;21755;43.608;1.236;2023-02-21T01:15:41;14.52;;;7.55;;
34767;SDS011;21755;43.608;1.236;2023-02-21T01:18:25;16.98;;;8.05;;
34767;SDS011;21755;43.608;1.236;2023-02-21T01:21:13;14.65;;;7.68;;
34767;SDS011;21755;43.608;1.236;2023-02-21T01:23:58;16.33;;;7.72;;
34767;SDS011;21755;43.608;1.236;2023-02-21T01:26:43;13.77;;;8.00;;
34767;SDS011;21755;43.608;1.236;2023-02-21T01:29:27;14.75;;;8.82;;
34767;SDS011;21755;43.608;1.236;2023-02-21T01:32:11;13.98;;;7.82;;
34767;SDS011;21755;43.608;1.236;2023-02-21T01:34:56;24.52;;;8.32;;
34767;SDS011;21755;43.608;1.236;2023-02-21T01:37:40;20.27;;;8.88;;
34767;SDS011;21755;43.608;1.236;2023-02-21T01:40:25;18.30;;;9.82;;
34767;SDS011;21755;43.608;1.236;2023-02-21T01:43:13;17.30;;;9.18;;
34767;SDS011;21755;43.608;1.236;2023-02-21T01:46:02;20.60;;;9.63;;
34767;SDS011;21755;43.608;1.236;2023-02-21T01:48:47;20.65;;;9.07;;
34767;SDS011;21755;43.608;1.236;2023-02-21T01:51:33;18.80;;;8.88;;
34767;SDS011;21755;43.608;1.236;2023-02-21T01:54:20;21.90;;;10.13;;
34767;SDS011;21755;43.608;1.236;2023-02-21T01:57:06;20.20;;;10.23;;
34767;SDS011;21755;43.608;1.236;2023-02-21T01:59:52;18.40;;;9.45;;
34767;SDS011;21755;43.608;1.236;2023-02-21T02:05:37;19.27;;;9.60;;
34767;SDS011;21755;43.608;1.236;2023-02-21T02:08:24;16.95;;;9.05;;
34767;SDS011;21755;43.608;1.236;2023-02-21T02:20:42;20.88;;;11.35;;
34767;SDS011;21755;43.608;1.236;2023-02-21T02:37:13;26.52;;;11.40;;
34767;SDS011;21755;43.608;1.236;2023-02-21T02:45:02;27.90;;;13.05;;
34767;SDS011;21755;43.608;1.236;2023-02-21T02:47:32;30.23;;;13.48;;
34767;SDS011;21755;43.608;1.236;2023-02-21T02:50:01;24.25;;;13.13;;
34767;SDS011;21755;43.608;1.236;2023-02-21T02:52:29;26.20;;;12.90;;
34767;SDS011;21755;43.608;1.236;2023-02-21T02:54:59;24.05;;;11.80;;
34767;SDS011;21755;43.608;1.236;2023-02-21T03:00:03;27.73;;;13.55;;
34767;SDS011;21755;43.608;1.236;2023-02-21T03:02:36;28.95;;;14.75;;
34767;SDS011;21755;43.608;1.236;2023-02-21T03:10:49;31.42;;;14.90;;
34767;SDS011;21755;43.608;1.236;2023-02-21T03:13:21;29.90;;;15.65;;
34767;SDS011;21755;43.608;1.236;2023-02-21T03:15:56;27.27;;;14.80;;
34767;SDS011;21755;43.608;1.236;2023-02-21T03:18:29;26.42;;;14.38;;
34767;SDS011;21755;43.608;1.236;2023-02-21T03:21:11;29.55;;;14.77;;
34767;SDS011;21755;43.608;1.236;2023-02-21T03:23:42;26.60;;;14.23;;
34767;SDS011;21755;43.608;1.236;2023-02-21T03:26:11;24.80;;;13.90;;
34767;SDS011;21755;43.608;1.236;2023-02-21T03:28:40;38.28;;;17.23;;
34767;SDS011;21755;43.608;1.236;2023-02-21T03:31:07;39.67;;;17.55;;
34767;SDS011;21755;43.608;1.236;2023-02-21T03:33:35;35.70;;;16.50;;
34767;SDS011;21755;43.608;1.236;2023-02-21T03:36:04;34.38;;;16.50;;
34767;SDS011;21755;43.608;1.236;2023-02-21T03:38:31;30.27;;;15.77;;
34767;SDS011;21755;43.608;1.236;2023-02-21T03:40:57;34.45;;;16.77;;
34767;SDS011;21755;43.608;1.236;2023-02-21T03:43:23;31.05;;;17.52;;
34767;SDS011;21755;43.608;1.236;2023-02-21T03:45:49;31.88;;;15.23;;
34767;SDS011;21755;43.608;1.236;2023-02-21T03:48:15;29.45;;;14.95;;
34767;SDS011;21755;43.608;1.236;2023-02-21T03:50:41;30.00;;;14.90;;
34767;SDS011;21755;43.608;1.236;2023-02-21T03:53:08;29.25;;;15.15;;
34767;SDS011;21755;43.608;1.236;2023-02-21T03:55:34;32.47;;;15.57;;
34767;SDS011;21755;43.608;1.236;2023-02-21T03:58:00;32.47;;;16.63;;
34767;SDS011;21755;43.608;1.236;2023-02-21T04:00:26;34.53;;;15.63;;
34767;SDS011;21755;43.608;1.236;2023-02-21T04:02:52;30.95;;;16.95;;
34767;SDS011;21755;43.608;1.236;2023-02-21T04:05:18;40.13;;;17.10;;
34767;SDS011;21755;43.608;1.236;2023-02-21T04:07:44;34.65;;;17.40;;
34767;SDS011;21755;43.608;1.236;2023-02-21T04:10:10;32.45;;;17.05;;
34767;SDS011;21755;43.608;1.236;2023-02-21T04:12:37;32.85;;;15.82;;
34767;SDS011;21755;43.608;1.236;2023-02-21T04:15:03;31.75;;;16.70;;
34767;SDS011;21755;43.608;1.236;2023-02-21T04:17:29;34.03;;;16.15;;
34767;SDS011;21755;43.608;1.236;2023-02-21T04:19:55;34.67;;;18.50;;
34767;SDS011;21755;43.608;1.236;2023-02-21T04:22:21;35.95;;;17.55;;
34767;SDS011;21755;43.608;1.236;2023-02-21T04:24:47;31.98;;;16.73;;
34767;SDS011;21755;43.608;1.236;2023-02-21T04:27:13;32.15;;;15.35;;
34767;SDS011;21755;43.608;1.236;2023-02-21T04:29:39;28.92;;;14.27;;
34767;SDS011;21755;43.608;1.236;2023-02-21T04:32:05;32.70;;;16.42;;
34767;SDS011;21755;43.608;1.236;2023-02-21T04:34:31;31.60;;;15.75;;
34767;SDS011;21755;43.608;1.236;2023-02-21T04:36:57;29.95;;;15.77;;
34767;SDS011;21755;43.608;1.236;2023-02-21T04:39:23;30.17;;;15.93;;
34767;SDS011;21755;43.608;1.236;2023-02-21T04:41:49;37.42;;;18.20;;
34767;SDS011;21755;43.608;1.236;2023-02-21T04:44:15;39.45;;;18.38;;
34767;SDS011;21755;43.608;1.236;2023-02-21T04:46:42;36.42;;;18.50;;
34767;SDS011;21755;43.608;1.236;2023-02-21T04:49:09;31.67;;;17.08;;
34767;SDS011;21755;43.608;1.236;2023-02-21T04:51:36;31.80;;;17.30;;
34767;SDS011;21755;43.608;1.236;2023-02-21T04:54:02;38.38;;;18.83;;
34767;SDS011;21755;43.608;1.236;2023-02-21T04:56:28;37.45;;;18.08;;
34767;SDS011;21755;43.608;1.236;2023-02-21T04:58:56;44.75;;;19.88;;
34767;SDS011;21755;43.608;1.236;2023-02-21T05:01:25;38.25;;;18.67;;
34767;SDS011;21755;43.608;1.236;2023-02-21T05:03:53;38.97;;;19.17;;
34767;SDS011;21755;43.608;1.236;2023-02-21T05:06:19;39.70;;;18.92;;
34767;SDS011;21755;43.608;1.236;2023-02-21T05:08:46;42.05;;;19.33;;
34767;SDS011;21755;43.608;1.236;2023-02-21T05:11:13;39.67;;;19.48;;
34767;SDS011;21755;43.608;1.236;2023-02-21T05:13:39;41.97;;;19.83;;
34767;SDS011;21755;43.608;1.236;2023-02-21T05:16:05;37.83;;;20.45;;
34767;SDS011;21755;43.608;1.236;2023-02-21T05:18:31;40.85;;;20.35;;
34767;SDS011;21755;43.608;1.236;2023-02-21T05:20:58;42.22;;;20.55;;
34767;SDS011;21755;43.608;1.236;2023-02-21T05:23:24;35.85;;;19.67;;
34767;SDS011;21755;43.608;1.236;2023-02-21T05:26:04;44.28;;;22.30;;
34767;SDS011;21755;43.608;1.236;2023-02-21T05:28:32;36.42;;;19.92;;
34767;SDS011;21755;43.608;1.236;2023-02-21T05:30:59;40.55;;;20.48;;
34767;SDS011;21755;43.608;1.236;2023-02-21T05:33:24;39.55;;;20.20;;
34767;SDS011;21755;43.608;1.236;2023-02-21T05:35:50;42.08;;;20.45;;
34767;SDS011;21755;43.608;1.236;2023-02-21T05:38:17;45.55;;;21.48;;
34767;SDS011;21755;43.608;1.236;2023-02-21T05:40:44;40.80;;;20.77;;
34767;SDS011;21755;43.608;1.236;2023-02-21T05:43:10;41.80;;;21.08;;
34767;SDS011;21755;43.608;1.236;2023-02-21T05:45:36;40.55;;;19.60;;
34767;SDS011;21755;43.608;1.236;2023-02-21T05:48:02;35.85;;;18.75;;
34767;SDS011;21755;43.608;1.236;2023-02-21T05:50:29;42.85;;;21.63;;
34767;SDS011;21755;43.608;1.236;2023-02-21T05:52:55;40.35;;;20.45;;
34767;SDS011;21755;43.608;1.236;2023-02-21T05:55:22;43.22;;;20.20;;
34767;SDS011;21755;43.608;1.236;2023-02-21T05:57:48;40.83;;;21.20;;
34767;SDS011;21755;43.608;1.236;2023-02-21T06:00:18;48.13;;;22.45;;
34767;SDS011;21755;43.608;1.236;2023-02-21T06:02:48;44.30;;;21.52;;
34767;SDS011;21755;43.608;1.236;2023-02-21T06:05:18;51.20;;;23.05;;
34767;SDS011;21755;43.608;1.236;2023-02-21T06:07:44;55.25;;;24.05;;
34767;SDS011;21755;43.608;1.236;2023-02-21T06:10:11;54.13;;;23.30;;
34767;SDS011;21755;43.608;1.236;2023-02-21T06:12:37;58.50;;;24.33;;
34767;SDS011;21755;43.608;1.236;2023-02-21T06:15:03;50.95;;;23.38;;
34767;SDS011;21755;43.608;1.236;2023-02-21T06:17:40;61.47;;;24.02;;
34767;SDS011;21755;43.608;1.236;2023-02-21T06:20:07;54.90;;;24.60;;
34767;SDS011;21755;43.608;1.236;2023-02-21T06:22:41;56.63;;;24.70;;
34767;SDS011;21755;43.608;1.236;2023-02-21T06:25:07;64.20;;;26.45;;
34767;SDS011;21755;43.608;1.236;2023-02-21T06:27:33;59.67;;;26.42;;
34767;SDS011;21755;43.608;1.236;2023-02-21T06:29:59;64.32;;;26.15;;
34767;SDS011;21755;43.608;1.236;2023-02-21T06:32:26;68.45;;;27.52;;
34767;SDS011;21755;43.608;1.236;2023-02-21T06:34:52;65.53;;;25.90;;
34767;SDS011;21755;43.608;1.236;2023-02-21T06:37:18;71.10;;;26.88;;
34767;SDS011;21755;43.608;1.236;2023-02-21T06:39:44;67.15;;;26.58;;
34767;SDS011;21755;43.608;1.236;2023-02-21T06:42:13;56.65;;;24.65;;
34767;SDS011;21755;43.608;1.236;2023-02-21T06:44:46;63.67;;;26.73;;
34767;SDS011;21755;43.608;1.236;2023-02-21T06:47:14;67.15;;;26.98;;
34767;SDS011;21755;43.608;1.236;2023-02-21T06:49:40;65.30;;;27.85;;
34767;SDS011;21755;43.608;1.236;2023-02-21T06:52:07;69.60;;;27.52;;
34767;SDS011;21755;43.608;1.236;2023-02-21T06:54:34;63.58;;;26.33;;
34767;SDS011;21755;43.608;1.236;2023-02-21T06:57:00;67.15;;;26.83;;
34767;SDS011;21755;43.608;1.236;2023-02-21T06:59:28;72.63;;;27.15;;
34767;SDS011;21755;43.608;1.236;2023-02-21T07:01:54;62.95;;;25.83;;
34767;SDS011;21755;43.608;1.236;2023-02-21T07:04:21;62.92;;;25.80;;
34767;SDS011;21755;43.608;1.236;2023-02-21T07:06:47;72.45;;;26.15;;
34767;SDS011;21755;43.608;1.236;2023-02-21T07:09:14;59.15;;;25.70;;
34767;SDS011;21755;43.608;1.236;2023-02-21T07:11:43;63.10;;;23.88;;
34767;SDS011;21755;43.608;1.236;2023-02-21T07:14:10;52.30;;;22.40;;
34767;SDS011;21755;43.608;1.236;2023-02-21T07:16:37;53.20;;;23.92;;
34767;SDS011;21755;43.608;1.236;2023-02-21T07:19:03;50.40;;;22.95;;
34767;SDS011;21755;43.608;1.236;2023-02-21T07:21:29;49.63;;;23.58;;
34767;SDS011;21755;43.608;1.236;2023-02-21T07:23:55;48.65;;;21.25;;
34767;SDS011;21755;43.608;1.236;2023-02-21T07:26:21;46.03;;;22.48;;
34767;SDS011;21755;43.608;1.236;2023-02-21T07:28:47;50.65;;;22.77;;
34767;SDS011;21755;43.608;1.236;2023-02-21T07:31:13;51.38;;;21.73;;
34767;SDS011;21755;43.608;1.236;2023-02-21T07:33:39;51.95;;;21.58;;
34767;SDS011;21755;43.608;1.236;2023-02-21T07:36:05;50.03;;;21.13;;
34767;SDS011;21755;43.608;1.236;2023-02-21T07:38:32;46.03;;;21.70;;
34767;SDS011;21755;43.608;1.236;2023-02-21T07:40:59;52.90;;;20.80;;
34767;SDS011;21755;43.608;1.236;2023-02-21T07:43:27;42.10;;;20.67;;
34767;SDS011;21755;43.608;1.236;2023-02-21T07:45:53;43.97;;;22.13;;
34767;SDS011;21755;43.608;1.236;2023-02-21T07:48:20;47.50;;;22.15;;
34767;SDS011;21755;43.608;1.236;2023-02-21T07:50:46;47.67;;;21.60;;
34767;SDS011;21755;43.608;1.236;2023-02-21T07:53:13;44.95;;;19.98;;
34767;SDS011;21755;43.608;1.236;2023-02-21T07:55:40;54.70;;;18.83;;
34767;SDS011;21755;43.608;1.236;2023-02-21T07:58:06;42.95;;;19.20;;
34767;SDS011;21755;43.608;1.236;2023-02-21T08:00:33;42.92;;;18.45;;
34767;SDS011;21755;43.608;1.236;2023-02-21T08:02:59;36.50;;;17.63;;
34767;SDS011;21755;43.608;1.236;2023-02-21T08:05:25;34.10;;;18.08;;
34767;SDS011;21755;43.608;1.236;2023-02-21T08:07:51;36.95;;;18.10;;
34767;SDS011;21755;43.608;1.236;2023-02-21T08:10:21;35.53;;;17.02;;
34767;SDS011;21755;43.608;1.236;2023-02-21T08:12:49;35.47;;;18.02;;
34767;SDS011;21755;43.608;1.236;2023-02-21T08:15:16;38.17;;;19.10;;
34767;SDS011;21755;43.608;1.236;2023-02-21T08:17:42;31.95;;;18.75;;
34767;SDS011;21755;43.608;1.236;2023-02-21T08:20:08;36.40;;;18.13;;
34767;SDS011;21755;43.608;1.236;2023-02-21T08:22:37;42.13;;;18.27;;
34767;SDS011;21755;43.608;1.236;2023-02-21T08:25:03;35.20;;;17.75;;
34767;SDS011;21755;43.608;1.236;2023-02-21T08:27:29;34.60;;;18.55;;
34767;SDS011;21755;43.608;1.236;2023-02-21T08:29:55;35.58;;;17.48;;
34767;SDS011;21755;43.608;1.236;2023-02-21T08:32:21;39.42;;;16.48;;
34767;SDS011;21755;43.608;1.236;2023-02-21T08:34:47;32.92;;;16.35;;
34767;SDS011;21755;43.608;1.236;2023-02-21T08:37:14;32.85;;;15.75;;
34767;SDS011;21755;43.608;1.236;2023-02-21T08:39:46;36.67;;;15.63;;
34767;SDS011;21755;43.608;1.236;2023-02-21T08:42:17;31.48;;;15.60;;
34767;SDS011;21755;43.608;1.236;2023-02-21T08:44:44;32.33;;;15.95;;
34767;SDS011;21755;43.608;1.236;2023-02-21T08:47:11;28.52;;;14.98;;
34767;SDS011;21755;43.608;1.236;2023-02-21T08:49:38;28.02;;;15.23;;
34767;SDS011;21755;43.608;1.236;2023-02-21T08:52:06;27.23;;;15.07;;
34767;SDS011;21755;43.608;1.236;2023-02-21T08:54:33;33.60;;;14.77;;
34767;SDS011;21755;43.608;1.236;2023-02-21T08:56:59;27.02;;;13.65;;
34767;SDS011;21755;43.608;1.236;2023-02-21T08:59:25;23.58;;;13.30;;
34767;SDS011;21755;43.608;1.236;2023-02-21T09:01:52;29.02;;;14.30;;
34767;SDS011;21755;43.608;1.236;2023-02-21T09:04:18;27.85;;;13.70;;
34767;SDS011;21755;43.608;1.236;2023-02-21T09:06:44;23.70;;;13.63;;
34767;SDS011;21755;43.608;1.236;2023-02-21T09:09:10;25.00;;;13.20;;
34767;SDS011;21755;43.608;1.236;2023-02-21T09:11:36;23.73;;;12.57;;
34767;SDS011;21755;43.608;1.236;2023-02-21T09:14:02;21.85;;;11.43;;
34767;SDS011;21755;43.608;1.236;2023-02-21T09:16:30;21.33;;;11.73;;
34767;SDS011;21755;43.608;1.236;2023-02-21T09:18:57;27.17;;;12.02;;
34767;SDS011;21755;43.608;1.236;2023-02-21T09:21:25;23.17;;;11.38;;
34767;SDS011;21755;43.608;1.236;2023-02-21T09:23:53;34.35;;;12.27;;
34767;SDS011;21755;43.608;1.236;2023-02-21T09:26:20;21.23;;;11.98;;
34767;SDS011;21755;43.608;1.236;2023-02-21T09:28:48;24.90;;;12.18;;
34767;SDS011;21755;43.608;1.236;2023-02-21T09:31:18;24.45;;;10.93;;
34767;SDS011;21755;43.608;1.236;2023-02-21T09:33:44;23.17;;;10.15;;
34767;SDS011;21755;43.608;1.236;2023-02-21T09:36:11;18.88;;;10.45;;
34767;SDS011;21755;43.608;1.236;2023-02-21T09:38:37;18.13;;;10.98;;
34767;SDS011;21755;43.608;1.236;2023-02-21T09:41:06;24.23;;;11.10;;
34767;SDS011;21755;43.608;1.236;2023-02-21T09:43:37;16.80;;;10.20;;
34767;SDS011;21755;43.608;1.236;2023-02-21T09:46:25;21.17;;;10.80;;
34767;SDS011;21755;43.608;1.236;2023-02-21T09:48:56;20.25;;;10.35;;
34767;SDS011;21755;43.608;1.236;2023-02-21T09:51:23;19.65;;;11.50;;
34767;SDS011;21755;43.608;1.236;2023-02-21T09:53:50;21.45;;;10.18;;
34767;SDS011;21755;43.608;1.236;2023-02-21T09:56:30;22.70;;;9.77;;
34767;SDS011;21755;43.608;1.236;2023-02-21T09:59:00;16.42;;;9.20;;
34767;SDS011;21755;43.608;1.236;2023-02-21T10:12:25;20.33;;;9.75;;
34767;SDS011;21755;43.608;1.236;2023-02-21T10:21:19;13.40;;;8.25;;
34767;SDS011;21755;43.608;1.236;2023-02-21T10:23:49;17.58;;;9.60;;
34767;SDS011;21755;43.608;1.236;2023-02-21T10:26:22;21.08;;;9.82;;
34767;SDS011;21755;43.608;1.236;2023-02-21T10:28:52;18.42;;;10.15;;
34767;SDS011;21755;43.608;1.236;2023-02-21T10:31:19;16.48;;;8.32;;
34767;SDS011;21755;43.608;1.236;2023-02-21T10:33:54;17.67;;;9.13;;
34767;SDS011;21755;43.608;1.236;2023-02-21T10:36:21;20.25;;;8.35;;
34767;SDS011;21755;43.608;1.236;2023-02-21T10:38:55;16.48;;;8.88;;
34767;SDS011;21755;43.608;1.236;2023-02-21T10:41:28;15.82;;;8.82;;
34767;SDS011;21755;43.608;1.236;2023-02-21T10:44:03;20.60;;;9.27;;
34767;SDS011;21755;43.608;1.236;2023-02-21T10:46:39;17.23;;;8.90;;
34767;SDS011;21755;43.608;1.236;2023-02-21T10:52:12;17.15;;;8.38;;
34767;SDS011;21755;43.608;1.236;2023-02-21T10:54:41;17.00;;;9.25;;
34767;SDS011;21755;43.608;1.236;2023-02-21T10:57:23;17.13;;;8.80;;
34767;SDS011;21755;43.608;1.236;2023-02-21T10:59:50;13.57;;;8.40;;
34767;SDS011;21755;43.608;1.236;2023-02-21T11:02:35;20.45;;;9.68;;
34767;SDS011;21755;43.608;1.236;2023-02-21T11:05:22;18.48;;;9.43;;
34767;SDS011;21755;43.608;1.236;2023-02-21T11:07:56;17.20;;;9.25;;
34767;SDS011;21755;43.608;1.236;2023-02-21T11:10:34;20.63;;;10.20;;
34767;SDS011;21755;43.608;1.236;2023-02-21T11:13:16;17.77;;;9.30;;
34767;SDS011;21755;43.608;1.236;2023-02-21T11:15:45;17.65;;;9.68;;
34767;SDS011;21755;43.608;1.236;2023-02-21T11:18:14;20.60;;;8.80;;
34767;SDS011;21755;43.608;1.236;2023-02-21T11:20:40;22.40;;;9.13;;
34767;SDS011;21755;43.608;1.236;2023-02-21T11:23:19;21.15;;;9.45;;
34767;SDS011;21755;43.608;1.236;2023-02-21T11:25:48;16.58;;;9.05;;
34767;SDS011;21755;43.608;1.236;2023-02-21T11:28:19;18.75;;;9.50;;
34767;SDS011;21755;43.608;1.236;2023-02-21T11:33:12;17.33;;;9.55;;
34767;SDS011;21755;43.608;1.236;2023-02-21T11:35:45;20.63;;;10.02;;
34767;SDS011;21755;43.608;1.236;2023-02-21T11:38:32;19.10;;;9.57;;
34767;SDS011;21755;43.608;1.236;2023-02-21T11:41:00;17.40;;;8.18;;
34767;SDS011;21755;43.608;1.236;2023-02-21T11:43:31;20.25;;;9.10;;
34767;SDS011;21755;43.608;1.236;2023-02-21T11:46:02;17.58;;;9.18;;
34767;SDS011;21755;43.608;1.236;2023-02-21T11:48:53;16.60;;;9.87;;
34767;SDS011;21755;43.608;1.236;2023-02-21T11:51:35;18.67;;;9.52;;
34767;SDS011;21755;43.608;1.236;2023-02-21T11:54:09;19.00;;;9.88;;
34767;SDS011;21755;43.608;1.236;2023-02-21T12:05:24;18.92;;;8.95;;
34767;SDS011;21755;43.608;1.236;2023-02-21T12:19:29;13.65;;;9.10;;
34767;SDS011;21755;43.608;1.236;2023-02-21T12:42:27;19.65;;;8.88;;
34767;SDS011;21755;43.608;1.236;2023-02-21T12:50:20;11.82;;;7.45;;
34767;SDS011;21755;43.608;1.236;2023-02-21T12:55:38;15.27;;;8.60;;
34767;SDS011;21755;43.608;1.236;2023-02-21T13:00:59;15.27;;;8.25;;
34767;SDS011;21755;43.608;1.236;2023-02-21T13:03:50;14.48;;;8.32;;
34767;SDS011;21755;43.608;1.236;2023-02-21T13:17:11;15.18;;;8.07;;
34767;SDS011;21755;43.608;1.236;2023-02-21T13:19:48;18.65;;;8.93;;
34767;SDS011;21755;43.608;1.236;2023-02-21T13:28:52;15.23;;;8.20;;
34767;SDS011;21755;43.608;1.236;2023-02-21T13:31:21;14.43;;;7.53;;
34767;SDS011;21755;43.608;1.236;2023-02-21T13:33:54;12.80;;;7.45;;
34767;SDS011;21755;43.608;1.236;2023-02-21T13:41:49;17.67;;;7.68;;
34767;SDS011;21755;43.608;1.236;2023-02-21T13:44:25;11.68;;;7.03;;
34767;SDS011;21755;43.608;1.236;2023-02-21T13:47:02;13.65;;;7.55;;
34767;SDS011;21755;43.608;1.236;2023-02-21T13:49:36;15.70;;;7.40;;
34767;SDS011;21755;43.608;1.236;2023-02-21T13:57:50;14.10;;;7.35;;
34767;SDS011;21755;43.608;1.236;2023-02-21T14:03:03;14.88;;;7.15;;
34767;SDS011;21755;43.608;1.236;2023-02-21T14:13:50;14.15;;;6.72;;
34767;SDS011;21755;43.608;1.236;2023-02-21T14:19:02;10.48;;;6.80;;
34767;SDS011;21755;43.608;1.236;2023-02-21T14:26:37;15.70;;;6.60;;
34767;SDS011;21755;43.608;1.236;2023-02-21T14:29:14;15.38;;;6.72;;
34767;SDS011;21755;43.608;1.236;2023-02-21T14:31:57;11.73;;;7.13;;
34767;SDS011;21755;43.608;1.236;2023-02-21T14:37:16;17.92;;;7.10;;
34767;SDS011;21755;43.608;1.236;2023-02-21T14:39:57;15.43;;;6.57;;
34767;SDS011;21755;43.608;1.236;2023-02-21T15:00:06;13.73;;;6.13;;
34767;SDS011;21755;43.608;1.236;2023-02-21T15:05:48;14.45;;;6.90;;
34767;SDS011;21755;43.608;1.236;2023-02-21T15:08:18;12.15;;;6.05;;
34767;SDS011;21755;43.608;1.236;2023-02-21T15:10:48;16.73;;;7.53;;
34767;SDS011;21755;43.608;1.236;2023-02-21T15:13:20;10.95;;;6.22;;
34767;SDS011;21755;43.608;1.236;2023-02-21T15:15:53;12.73;;;6.38;;
34767;SDS011;21755;43.608;1.236;2023-02-21T15:18:27;16.92;;;7.13;;
34767;SDS011;21755;43.608;1.236;2023-02-21T15:23:32;14.15;;;6.95;;
34767;SDS011;21755;43.608;1.236;2023-02-21T15:26:00;14.15;;;7.18;;
34767;SDS011;21755;43.608;1.236;2023-02-21T15:28:40;16.02;;;7.03;;
34767;SDS011;21755;43.608;1.236;2023-02-21T15:31:08;19.23;;;7.15;;
34767;SDS011;21755;43.608;1.236;2023-02-21T15:33:38;13.93;;;6.70;;
34767;SDS011;21755;43.608;1.236;2023-02-21T15:38:39;19.75;;;8.30;;
34767;SDS011;21755;43.608;1.236;2023-02-21T15:46:38;17.35;;;7.53;;
34767;SDS011;21755;43.608;1.236;2023-02-21T15:49:05;13.57;;;7.03;;
34767;SDS011;21755;43.608;1.236;2023-02-21T15:51:38;21.83;;;7.10;;
34767;SDS011;21755;43.608;1.236;2023-02-21T15:54:08;17.60;;;7.22;;
34767;SDS011;21755;43.608;1.236;2023-02-21T15:56:45;14.65;;;6.60;;
34767;SDS011;21755;43.608;1.236;2023-02-21T15:59:19;19.83;;;7.93;;
34767;SDS011;21755;43.608;1.236;2023-02-21T16:04:46;16.30;;;6.78;;
34767;SDS011;21755;43.608;1.236;2023-02-21T16:07:18;12.00;;;6.40;;
34767;SDS011;21755;43.608;1.236;2023-02-21T16:09:57;20.05;;;7.78;;
34767;SDS011;21755;43.608;1.236;2023-02-21T16:12:27;14.02;;;5.90;;
34767;SDS011;21755;43.608;1.236;2023-02-21T16:14:57;17.42;;;7.40;;
34767;SDS011;21755;43.608;1.236;2023-02-21T16:17:34;21.75;;;7.63;;
34767;SDS011;21755;43.608;1.236;2023-02-21T16:22:47;12.88;;;6.65;;
34767;SDS011;21755;43.608;1.236;2023-02-21T16:25:19;13.65;;;7.13;;
34767;SDS011;21755;43.608;1.236;2023-02-21T16:27:48;17.55;;;8.05;;
34767;SDS011;21755;43.608;1.236;2023-02-21T16:30:21;20.02;;;8.48;;
34767;SDS011;21755;43.608;1.236;2023-02-21T16:32:52;17.35;;;8.52;;
34767;SDS011;21755;43.608;1.236;2023-02-21T16:35:23;15.05;;;7.47;;
34767;SDS011;21755;43.608;1.236;2023-02-21T16:37:51;15.00;;;7.07;;
34767;SDS011;21755;43.608;1.236;2023-02-21T16:40:29;18.27;;;8.00;;
34767;SDS011;21755;43.608;1.236;2023-02-21T16:42:57;16.75;;;8.32;;
34767;SDS011;21755;43.608;1.236;2023-02-21T16:45:25;15.00;;;8.90;;
34767;SDS011;21755;43.608;1.236;2023-02-21T16:47:56;18.50;;;8.27;;
34767;SDS011;21755;43.608;1.236;2023-02-21T16:50:31;19.33;;;9.20;;
34767;SDS011;21755;43.608;1.236;2023-02-21T16:52:57;17.27;;;8.82;;
34767;SDS011;21755;43.608;1.236;2023-02-21T16:55:24;18.92;;;9.43;;
34767;SDS011;21755;43.608;1.236;2023-02-21T16:57:54;21.80;;;8.48;;
34767;SDS011;21755;43.608;1.236;2023-02-21T17:00:26;18.80;;;9.40;;
34767;SDS011;21755;43.608;1.236;2023-02-21T17:02:52;16.15;;;9.15;;
34767;SDS011;21755;43.608;1.236;2023-02-21T17:05:19;15.35;;;9.20;;
34767;SDS011;21755;43.608;1.236;2023-02-21T17:07:46;22.38;;;8.90;;
34767;SDS011;21755;43.608;1.236;2023-02-21T17:10:13;18.10;;;9.00;;
34767;SDS011;21755;43.608;1.236;2023-02-21T17:12:39;22.50;;;10.18;;
34767;SDS011;21755;43.608;1.236;2023-02-21T17:15:05;19.95;;;9.02;;
34767;SDS011;21755;43.608;1.236;2023-02-21T17:17:32;19.80;;;9.00;;
34767;SDS011;21755;43.608;1.236;2023-02-21T17:19:58;15.68;;;9.13;;
34767;SDS011;21755;43.608;1.236;2023-02-21T17:22:23;17.55;;;10.30;;
34767;SDS011;21755;43.608;1.236;2023-02-21T17:24:49;18.30;;;9.95;;
34767;SDS011;21755;43.608;1.236;2023-02-21T17:27:15;23.13;;;9.55;;
34767;SDS011;21755;43.608;1.236;2023-02-21T17:29:41;22.73;;;9.50;;
34767;SDS011;21755;43.608;1.236;2023-02-21T17:32:07;20.95;;;10.00;;
34767;SDS011;21755;43.608;1.236;2023-02-21T17:34:33;21.33;;;11.07;;
34767;SDS011;21755;43.608;1.236;2023-02-21T17:37:00;20.75;;;9.95;;
34767;SDS011;21755;43.608;1.236;2023-02-21T17:39:27;20.23;;;11.15;;
34767;SDS011;21755;43.608;1.236;2023-02-21T17:41:53;23.98;;;11.63;;
34767;SDS011;21755;43.608;1.236;2023-02-21T17:44:19;25.67;;;12.23;;
34767;SDS011;21755;43.608;1.236;2023-02-21T17:46:49;21.90;;;11.40;;
34767;SDS011;21755;43.608;1.236;2023-02-21T17:49:17;24.80;;;11.65;;
34767;SDS011;21755;43.608;1.236;2023-02-21T17:51:44;24.58;;;12.40;;
34767;SDS011;21755;43.608;1.236;2023-02-21T17:54:14;20.42;;;12.00;;
34767;SDS011;21755;43.608;1.236;2023-02-21T17:56:42;22.70;;;11.32;;
34767;SDS011;21755;43.608;1.236;2023-02-21T17:59:08;21.27;;;12.73;;
34767;SDS011;21755;43.608;1.236;2023-02-21T18:01:34;22.40;;;10.32;;
34767;SDS011;21755;43.608;1.236;2023-02-21T18:04:00;23.10;;;11.88;;
34767;SDS011;21755;43.608;1.236;2023-02-21T18:06:27;29.48;;;13.38;;
34767;SDS011;21755;43.608;1.236;2023-02-21T18:08:54;24.65;;;13.00;;
34767;SDS011;21755;43.608;1.236;2023-02-21T18:11:22;23.48;;;12.32;;
34767;SDS011;21755;43.608;1.236;2023-02-21T18:13:49;22.90;;;12.07;;